createdAt,value
2023-02-25T00:00:33.549Z,85949.22
2023-02-25T00:03:01.189Z,85956.31
2023-02-25T00:05:31.329Z,85949.59
2023-02-25T00:07:59.856Z,85932.41
2023-02-25T00:10:27.368Z,85940.66
2023-02-25T00:12:54.807Z,85936.91
2023-02-25T00:15:22.662Z,85944.75
2023-02-25T00:17:49.973Z,85930.22
2023-02-25T00:20:18.413Z,85927.22
2023-02-25T00:22:45.946Z,85919.78
2023-02-25T00:25:13.222Z,85909.31
2023-02-25T00:27:40.455Z,85910.06
2023-02-25T00:30:08.562Z,85910.44
2023-02-25T00:32:35.957Z,85904.84
2023-02-25T00:39:16.256Z,85905.66
2023-02-25T00:41:45.581Z,85895.97
2023-02-25T00:44:13.049Z,85894.09
2023-02-25T00:46:40.224Z,85885.91
2023-02-25T00:49:27.191Z,85884.03
2023-02-25T00:51:59.984Z,85885.16
2023-02-25T00:54:28.350Z,85884.41
2023-02-25T00:56:58.184Z,85875.44
2023-02-25T00:59:25.593Z,85872.06
2023-02-25T01:01:53.298Z,85868.34
2023-02-25T01:04:20.562Z,85868.72
2023-02-25T01:10:56.209Z,85863.13
2023-02-25T01:13:23.486Z,85860.16
2023-02-25T01:15:50.662Z,85848.97
2023-02-25T01:18:17.965Z,85852.69
2023-02-25T01:20:45.164Z,85853.44
2023-02-25T01:23:12.546Z,85854.19
2023-02-25T01:25:41.034Z,85841.47
2023-02-25T01:28:08.520Z,85842.63
2023-02-25T01:30:38.708Z,85819.09
2023-02-25T01:33:05.883Z,85840.38
2023-02-25T01:35:36.074Z,85822.84
2023-02-25T01:38:03.441Z,85822.47
2023-02-25T01:40:31.130Z,85817.63
2023-02-25T01:42:58.356Z,85818.78
2023-02-25T01:45:31.020Z,85808.72
2023-02-25T01:48:17.316Z,85808.72
2023-02-25T01:50:54.005Z,85810.56
2023-02-25T01:53:29.483Z,85808.72
2023-02-25T01:55:59.916Z,85810.22
2023-02-25T01:58:27.988Z,85802.75
2023-02-25T02:00:56.160Z,85801.28
2023-02-25T02:03:34.414Z,85791.97
2023-02-25T02:06:26.407Z,85766.22
2023-02-25T02:08:54.974Z,85752.44
2023-02-25T02:11:22.133Z,85748.66
2023-02-25T02:13:55.666Z,85763.63
2023-02-25T02:17:20.352Z,85740.13
2023-02-25T02:20:05.106Z,85726.72
2023-02-25T02:22:48.312Z,85733.81
2023-02-25T02:25:51.877Z,85761.81
2023-02-25T02:28:31.159Z,85757.34
2023-02-25T02:35:23.718Z,85732.72
2023-02-25T02:38:33.963Z,85722.28
2023-02-25T02:41:22.848Z,85714.06
2023-02-25T02:44:26.995Z,85725.63
2023-02-25T02:47:10.476Z,85716.31
2023-02-25T02:49:57.433Z,85699.13
2023-02-25T02:52:31.871Z,85695.38
2023-02-25T02:59:39.020Z,85701.34
2023-02-25T03:02:20.710Z,85689.44
2023-02-25T03:04:53.829Z,85696.13
2023-02-25T03:07:23.518Z,85696.53
2023-02-25T03:09:57.196Z,85686.47
2023-02-25T03:12:25.001Z,85685.75
2023-02-25T03:14:52.243Z,85676.03
2023-02-25T03:17:28.673Z,85673.81
2023-02-25T03:20:27.222Z,85666.34
2023-02-25T03:22:58.754Z,85673.44
2023-02-25T03:25:41.019Z,85674.56
2023-02-25T03:28:19.815Z,85667.88
2023-02-25T03:31:10.248Z,85672.75
2023-02-25T03:33:47.627Z,85680.22
2023-02-25T03:36:40.273Z,85683.59
2023-02-25T03:39:17.092Z,85685.09
2023-02-25T03:41:52.329Z,85694.03
2023-02-25T03:44:51.618Z,85676.88
2023-02-25T03:47:22.347Z,85675.78
2023-02-25T03:50:08.567Z,85672.81
2023-02-25T03:52:36.567Z,85681.75
2023-02-25T03:55:06.136Z,85673.53
2023-02-25T03:57:41.275Z,85679.47
2023-02-25T04:00:18.723Z,85685.44
2023-02-25T04:02:47.732Z,85703.38
2023-02-25T04:05:17.773Z,85688.06
2023-02-25T04:07:45.471Z,85685.47
2023-02-25T04:10:16.312Z,85668.66
2023-02-25T04:12:43.601Z,85661.97
2023-02-25T04:15:11.570Z,85665.69
2023-02-25T04:17:39.142Z,85666.75
2023-02-25T04:20:06.927Z,85662.66
2023-02-25T04:22:34.218Z,85661.16
2023-02-25T04:25:01.669Z,85662.63
2023-02-25T04:27:28.777Z,85664.88
2023-02-25T04:29:55.971Z,85665.59
2023-02-25T04:32:23.387Z,85662.59
2023-02-25T04:34:51.210Z,85657.00
2023-02-25T04:37:18.457Z,85659.22
2023-02-25T04:39:45.596Z,85655.81
2023-02-25T04:42:12.766Z,85658.06
2023-02-25T04:44:39.966Z,85652.50
2023-02-25T04:47:07.103Z,85665.19
2023-02-25T04:49:34.686Z,85667.38
2023-02-25T04:52:01.868Z,85667.00
2023-02-25T04:58:23.506Z,85659.53
2023-02-25T05:00:50.664Z,85660.25
2023-02-25T05:03:17.832Z,85676.66
2023-02-25T05:05:45.037Z,85674.75
2023-02-25T05:08:12.236Z,85677.75
2023-02-25T05:10:39.401Z,85691.19
2023-02-25T05:13:07.172Z,85692.69
2023-02-25T05:15:34.311Z,85699.38
2023-02-25T05:18:02.548Z,85697.88
2023-02-25T05:20:30.058Z,85694.50
2023-02-25T05:27:05.262Z,85696.75
2023-02-25T05:29:32.409Z,85700.47
2023-02-25T05:36:11.307Z,85704.97
2023-02-25T05:38:38.655Z,85701.22
2023-02-25T05:41:07.180Z,85704.22
2023-02-25T05:43:35.745Z,85715.38
2023-02-25T05:46:03.250Z,85709.03
2023-02-25T05:49:16.095Z,85706.44
2023-02-25T05:51:43.480Z,85710.94
2023-02-25T05:58:11.364Z,85717.69
2023-02-25T06:00:39.594Z,85715.44
2023-02-25T06:03:07.002Z,85714.69
2023-02-25T06:05:34.274Z,85708.72
2023-02-25T06:08:01.703Z,85717.34
2023-02-25T06:10:28.968Z,85715.84
2023-02-25T06:12:56.165Z,85717.63
2023-02-25T06:15:23.325Z,85717.28
2023-02-25T06:17:50.557Z,85714.28
2023-02-25T06:24:24.719Z,85725.06
2023-02-25T06:26:52.083Z,85722.44
2023-02-25T06:29:19.556Z,85720.53
2023-02-25T06:31:46.934Z,85721.69
2023-02-25T06:34:14.281Z,85718.31
2023-02-25T06:36:41.481Z,85725.78
2023-02-25T06:43:18.666Z,85737.34
2023-02-25T06:45:45.892Z,85733.25
2023-02-25T06:48:13.333Z,85736.22
2023-02-25T06:50:41.639Z,85733.25
2023-02-25T06:57:08.216Z,85735.53
2023-02-25T06:59:35.381Z,85743.72
2023-02-25T07:02:03.161Z,85740.69
2023-02-25T07:04:30.588Z,85744.09
2023-02-25T07:06:57.752Z,85748.56
2023-02-25T07:09:25.499Z,85743.78
2023-02-25T07:11:52.655Z,85741.53
2023-02-25T07:14:19.849Z,85748.63
2023-02-25T07:16:47.051Z,85746.47
2023-02-25T07:19:16.265Z,85764.00
2023-02-25T07:21:44.604Z,85757.66
2023-02-25T07:24:13.476Z,85754.31
2023-02-25T07:30:43.176Z,85759.19
2023-02-25T07:33:10.416Z,85756.56
2023-02-25T07:35:37.920Z,85745.72
2023-02-25T07:38:05.072Z,85746.44
2023-02-25T07:40:32.236Z,85757.59
2023-02-25T07:42:59.399Z,85756.81
2023-02-25T07:45:26.640Z,85751.94
2023-02-25T07:47:54.295Z,85759.34
2023-02-25T07:50:21.926Z,85749.63
2023-02-25T07:52:49.553Z,85742.91
2023-02-25T07:59:23.023Z,85738.03
2023-02-25T08:01:50.254Z,85744.75
2023-02-25T08:04:17.507Z,85739.19
2023-02-25T08:07:22.196Z,85739.53
2023-02-25T08:09:49.337Z,85729.81
2023-02-25T08:12:16.569Z,85729.81
2023-02-25T08:14:43.879Z,85730.13
2023-02-25T08:17:11.026Z,85725.00
2023-02-25T08:19:38.146Z,85720.81
2023-02-25T08:26:15.243Z,85724.13
2023-02-25T08:36:55.013Z,85720.28
2023-02-25T08:39:22.271Z,85717.63
2023-02-25T08:49:56.211Z,85720.91
2023-02-25T08:52:23.394Z,85720.09
2023-02-25T08:54:50.534Z,85720.09
2023-02-25T08:57:17.931Z,85716.41
2023-02-25T08:59:45.116Z,85716.44
2023-02-25T09:02:12.777Z,85711.91
2023-02-25T09:04:42.007Z,85720.00
2023-02-25T09:07:09.749Z,85709.53
2023-02-25T09:13:43.289Z,85711.75
2023-02-25T09:16:11.609Z,85715.47
2023-02-25T09:18:38.855Z,85722.91
2023-02-25T09:25:12.053Z,85714.13
2023-02-25T09:27:39.525Z,85715.88
2023-02-25T09:30:09.102Z,85715.44
2023-02-25T09:36:42.777Z,85719.00
2023-02-25T09:39:10.039Z,85715.72
2023-02-25T09:42:20.635Z,85711.53
2023-02-25T09:44:51.777Z,85714.09
2023-02-25T09:47:58.548Z,85708.41
2023-02-25T09:50:45.652Z,85710.66
2023-02-25T09:53:40.066Z,85705.66
2023-02-25T09:56:09.121Z,85704.16
2023-02-25T09:58:41.679Z,85693.19
2023-02-25T10:01:51.645Z,85690.81
2023-02-25T10:05:02.901Z,85682.13
2023-02-25T10:07:51.882Z,85683.19
2023-02-25T10:10:36.733Z,85673.78
2023-02-25T10:14:00.267Z,85678.19
2023-02-25T10:16:59.392Z,85662.81
2023-02-25T10:20:26.224Z,85664.97
2023-02-25T10:23:28.065Z,85653.69
2023-02-25T10:30:27.945Z,85651.38
2023-02-25T10:37:06.051Z,85650.44
2023-02-25T10:39:34.270Z,85649.97
2023-02-25T10:42:01.476Z,85631.75
2023-02-25T10:44:28.577Z,85634.50
2023-02-25T10:47:23.807Z,85629.25
2023-02-25T10:50:17.447Z,85629.47
2023-02-25T10:56:51.564Z,85633.53
2023-02-25T10:59:31.240Z,85634.16
2023-02-25T11:02:01.363Z,85623.13
2023-02-25T11:08:47.653Z,85630.53
2023-02-25T11:11:26.117Z,85615.06
2023-02-25T11:14:15.196Z,85610.50
2023-02-25T11:16:45.704Z,85604.78
2023-02-25T11:19:28.900Z,85619.72
2023-02-25T11:21:59.864Z,85614.75
2023-02-25T11:24:34.597Z,85613.72
2023-02-25T11:27:05.182Z,85614.03
2023-02-25T11:33:40.618Z,85589.25
2023-02-25T11:36:09.894Z,85576.31
2023-02-25T11:38:43.174Z,85576.97
2023-02-25T11:41:24.044Z,85581.63
2023-02-25T11:43:51.694Z,85572.34
2023-02-25T11:46:26.552Z,85577.38
2023-02-25T11:53:44.879Z,85550.25
2023-02-25T12:00:42.091Z,85542.78
2023-02-25T12:03:18.389Z,85548.19
2023-02-25T12:10:36.598Z,85539.56
2023-02-25T12:13:33.286Z,85549.94
2023-02-25T12:16:48.018Z,85528.22
2023-02-25T12:19:45.650Z,85532.53
2023-02-25T12:22:51.698Z,85535.22
2023-02-25T12:25:24.565Z,85529.44
2023-02-25T12:28:03.431Z,85512.66
2023-02-25T12:31:09.269Z,85515.59
2023-02-25T12:38:17.496Z,85499.03
2023-02-25T12:40:50.461Z,85492.91
2023-02-25T12:43:32.649Z,85487.38
2023-02-25T12:46:08.976Z,85490.59
2023-02-25T12:49:15.952Z,85481.41
2023-02-25T12:52:07.213Z,85479.94
2023-02-25T12:54:59.313Z,85479.75
2023-02-25T12:57:46.146Z,85477.13
2023-02-25T13:04:42.632Z,85480.84
2023-02-25T13:07:21.498Z,85474.53
2023-02-25T13:09:51.611Z,85469.78
2023-02-25T13:13:10.925Z,85462.03
2023-02-25T13:16:30.997Z,85460.41
2023-02-25T13:19:32.414Z,85461.84
2023-02-25T13:22:14.184Z,85462.63
2023-02-25T13:25:29.233Z,85456.13
2023-02-25T13:28:44.949Z,85460.47
2023-02-25T13:35:39.122Z,85454.59
2023-02-25T13:38:53.782Z,85446.63
2023-02-25T13:41:48.537Z,85442.50
2023-02-25T13:49:03.510Z,85447.50
2023-02-25T13:52:19.285Z,85439.25
2023-02-25T13:55:24.194Z,85436.75
2023-02-25T13:58:01.994Z,85436.28
2023-02-25T14:00:54.032Z,85432.09
2023-02-25T14:03:59.758Z,85423.50
2023-02-25T14:07:10.414Z,85417.72
2023-02-25T14:10:00.581Z,85424.69
2023-02-25T14:12:39.859Z,85420.28
2023-02-25T14:15:54.777Z,85415.59
2023-02-25T14:19:05.070Z,85415.47
2023-02-25T14:30:19.468Z,85408.09
2023-02-25T14:33:03.808Z,85403.72
2023-02-25T14:35:58.866Z,85405.81
2023-02-25T14:39:28.076Z,85415.84
2023-02-25T14:42:41.989Z,85418.09
2023-02-25T14:45:09.102Z,85416.94
2023-02-25T14:47:40.752Z,85417.03
2023-02-25T14:58:49.950Z,85419.34
2023-02-25T15:02:16.154Z,85418.34
2023-02-25T15:05:01.808Z,85423.59
2023-02-25T15:08:01.328Z,85421.72
2023-02-25T15:10:47.490Z,85419.66
2023-02-25T15:13:39.308Z,85424.47
2023-02-25T15:17:02.879Z,85421.31
2023-02-25T15:19:53.674Z,85419.41
2023-02-25T15:23:10.718Z,85424.25
2023-02-25T15:25:38.602Z,85416.97
2023-02-25T15:28:30.618Z,85422.88
2023-02-25T15:35:00.717Z,85431.94
2023-02-25T15:37:55.764Z,85437.91
2023-02-25T15:40:23.173Z,85440.84
2023-02-25T15:43:12.709Z,85439.72
2023-02-25T15:45:49.137Z,85434.44
2023-02-25T15:48:24.047Z,85448.44
2023-02-25T15:50:53.020Z,85441.66
2023-02-25T15:53:23.346Z,85444.28
2023-02-25T15:55:52.906Z,85444.28
2023-02-25T15:58:26.278Z,85446.25
2023-02-25T16:01:07.853Z,85450.44
2023-02-25T16:03:35.184Z,85449.72
2023-02-25T16:10:35.256Z,85455.03
2023-02-25T16:13:03.680Z,85457.84
2023-02-25T16:15:47.146Z,85459.75
2023-02-25T16:18:37.550Z,85455.41
2023-02-25T16:25:05.678Z,85462.81
2023-02-25T16:28:17.618Z,85461.66
2023-02-25T16:31:17.421Z,85463.66
2023-02-25T16:34:23.089Z,85472.34
2023-02-25T16:37:07.731Z,85476.97
2023-02-25T16:39:37.461Z,85469.63
2023-02-25T16:42:12.635Z,85472.75
2023-02-25T16:48:45.909Z,85472.84
2023-02-25T16:51:31.739Z,85477.53
2023-02-25T16:54:20.849Z,85489.94
2023-02-25T16:56:54.081Z,85480.16
2023-02-25T16:59:23.474Z,85481.66
2023-02-25T17:02:22.949Z,85477.69
2023-02-25T17:08:57.252Z,85493.78
2023-02-25T17:11:26.112Z,85493.47
2023-02-25T17:13:58.312Z,85507.19
2023-02-25T17:16:38.347Z,85494.28
2023-02-25T17:19:10.289Z,85501.56
2023-02-25T17:25:49.045Z,85493.94
2023-02-25T17:28:32.121Z,85502.69
2023-02-25T17:31:19.534Z,85509.59
2023-02-25T17:34:03.254Z,85505.59
2023-02-25T17:40:30.838Z,85502.38
2023-02-25T17:47:50.040Z,85506.41
2023-02-25T17:50:31.984Z,85519.53
2023-02-25T17:53:00.015Z,85511.44
2023-02-25T18:00:10.122Z,85529.34
2023-02-25T18:02:41.759Z,85529.06
2023-02-25T18:05:14.983Z,85530.22
2023-02-25T18:07:45.263Z,85528.78
2023-02-25T18:14:42.416Z,85539.06
2023-02-25T18:25:44.672Z,85540.44
2023-02-25T18:28:22.828Z,85535.97
2023-02-25T18:30:50.929Z,85527.69
2023-02-25T18:33:19.273Z,85529.97
2023-02-25T18:35:48.587Z,85532.25
2023-02-25T18:38:26.492Z,85533.34
2023-02-25T18:40:55.458Z,85525.88
2023-02-25T18:43:45.023Z,85516.53
2023-02-25T18:46:12.410Z,85521.09
2023-02-25T18:48:39.860Z,85516.63
2023-02-25T18:51:13.656Z,85523.41
2023-02-25T18:53:41.686Z,85519.31
2023-02-25T18:56:16.640Z,85513.38
2023-02-25T18:58:44.721Z,85509.31
2023-02-25T19:01:34.352Z,85522.09
2023-02-25T19:04:08.168Z,85515.03
2023-02-25T19:06:35.685Z,85520.66
2023-02-25T19:09:03.761Z,85526.63
2023-02-25T19:11:35.664Z,85526.97
2023-02-25T19:14:05.403Z,85529.56
2023-02-25T19:16:32.665Z,85527.31
2023-02-25T19:19:00.494Z,85517.66
2023-02-25T19:21:28.215Z,85516.50
2023-02-25T19:23:55.868Z,85522.50
2023-02-25T19:26:23.641Z,85524.31
2023-02-25T19:28:50.996Z,85525.09
2023-02-25T19:31:18.243Z,85524.81
2023-02-25T19:33:45.686Z,85524.78
2023-02-25T19:36:13.043Z,85518.78
2023-02-25T19:38:40.432Z,85524.03
2023-02-25T19:41:07.862Z,85534.50
2023-02-25T19:43:36.406Z,85527.44
2023-02-25T19:46:08.727Z,85525.50
2023-02-25T19:48:36.277Z,85531.63
2023-02-25T19:51:10.727Z,85537.22
2023-02-25T19:53:38.638Z,85530.72
2023-02-25T19:56:06.906Z,85530.88
2023-02-25T19:58:34.353Z,85549.66
2023-02-25T20:01:07.989Z,85553.72
2023-02-25T20:03:38.752Z,85551.59
2023-02-25T20:10:26.162Z,85571.22
2023-02-25T20:12:54.198Z,85576.84
2023-02-25T20:15:23.118Z,85571.16
2023-02-25T20:17:50.762Z,85569.31
2023-02-25T20:24:37.075Z,85566.44
2023-02-25T20:27:04.713Z,85565.56
2023-02-25T20:29:32.676Z,85556.38
2023-02-25T20:32:00.764Z,85559.84
2023-02-25T20:34:28.685Z,85573.06
2023-02-25T20:41:15.877Z,85591.66
2023-02-25T20:43:43.211Z,85590.16
2023-02-25T20:46:28.743Z,85586.00
2023-02-25T20:48:56.514Z,85581.50
2023-02-25T20:51:24.307Z,85593.06
2023-02-25T20:53:52.010Z,85597.22
2023-02-25T20:56:25.583Z,85602.72
2023-02-25T20:58:53.791Z,85599.75
2023-02-25T21:01:22.324Z,85603.53
2023-02-25T21:03:49.770Z,85601.63
2023-02-25T21:06:18.819Z,85603.88
2023-02-25T21:08:46.155Z,85603.53
2023-02-25T21:11:13.530Z,85594.94
2023-02-25T21:13:40.909Z,85599.13
2023-02-25T21:16:08.894Z,85606.69
2023-02-25T21:18:36.269Z,85608.66
2023-02-25T21:21:08.065Z,85606.47
2023-02-25T21:23:38.341Z,85602.22
2023-02-25T21:26:07.992Z,85605.59
2023-02-25T21:28:36.507Z,85597.31
2023-02-25T21:31:13.893Z,85608.47
2023-02-25T21:33:42.223Z,85603.97
2023-02-25T21:36:11.308Z,85607.84
2023-02-25T21:38:39.280Z,85606.09
2023-02-25T21:41:11.630Z,85604.59
2023-02-25T21:43:40.450Z,85609.41
2023-02-25T21:46:12.867Z,85613.25
2023-02-25T21:48:44.758Z,85604.03
2023-02-25T21:51:22.995Z,85609.97
2023-02-25T21:53:58.835Z,85615.19
2023-02-25T21:56:28.494Z,85608.09
2023-02-25T21:58:59.552Z,85611.41
2023-02-25T22:01:32.070Z,85612.84
2023-02-25T22:03:59.563Z,85607.63
2023-02-25T22:06:28.145Z,85613.97
2023-02-25T22:08:56.793Z,85609.50
2023-02-25T22:11:28.954Z,85614.31
2023-02-25T22:13:57.822Z,85605.81
2023-02-25T22:16:25.587Z,85606.28
2023-02-25T22:19:05.850Z,85611.50
2023-02-25T22:21:34.716Z,85618.97
2023-02-25T22:24:04.843Z,85622.72
2023-02-25T22:30:38.764Z,85618.28
2023-02-25T22:33:05.967Z,85613.50
2023-02-25T22:35:33.472Z,85615.38
2023-02-25T22:38:00.589Z,85619.50
2023-02-25T22:45:32.786Z,85617.97
2023-02-25T22:47:59.962Z,85611.72
2023-02-25T22:54:26.847Z,85618.41
2023-02-25T22:56:54.239Z,85616.19
2023-02-25T23:07:18.293Z,85629.31
2023-02-25T23:09:45.420Z,85625.56
2023-02-25T23:12:12.577Z,85633.00
2023-02-25T23:14:39.790Z,85637.44
2023-02-25T23:17:06.930Z,85630.75
2023-02-25T23:19:34.496Z,85639.31
2023-02-25T23:22:02.109Z,85641.16
2023-02-25T23:28:36.580Z,85637.06
2023-02-25T23:31:05.120Z,85638.94
2023-02-25T23:33:33.509Z,85637.09
2023-02-25T23:36:04.776Z,85632.94
2023-02-25T23:38:31.996Z,85638.56
2023-02-25T23:41:00.387Z,85636.00
2023-02-25T23:43:27.920Z,85635.97
2023-02-25T23:45:55.069Z,85634.13
2023-02-25T23:48:22.544Z,85631.50
2023-02-25T23:50:49.878Z,85638.97
2023-02-25T23:53:17.147Z,85636.38
2023-02-25T23:55:44.372Z,85640.50
2023-02-25T23:58:11.505Z,85637.53
